Time;durP1;ratioP1;P1;durP2;ratioP2;P2;SDS_P1;SDS_P2;PMS_P1;PMS_P2;Temp;Humidity;BMP_temperature;BMP_pressure;BME280_temperature;BME280_humidity;BME280_pressure;Samples;Min_cycle;Max_cycle;Signal;HPM_P1;HPM_P2
2022/12/16 00:01:06;;;;;;;30.83;15.23;;;;;;;-8.29;90.40;99644.09;5068379;28;20557;-67
2022/12/16 00:03:32;;;;;;;21.07;8.20;;;;;;;-8.39;90.71;99623.69;5065024;28;20620;-68
2022/12/16 00:06:02;;;;;;;20.77;8.57;;;;;;;-8.36;90.29;99644.44;5067223;28;20461;-68
2022/12/16 00:08:31;;;;;;;18.53;8.67;;;;;;;-8.33;90.86;99631.81;5066324;28;20543;-68
2022/12/16 00:10:59;;;;;;;21.50;8.73;;;;;;;-8.32;90.64;99635.28;5066163;28;21616;-68
2022/12/16 00:13:27;;;;;;;20.77;7.93;;;;;;;-8.22;90.95;99637.72;5050344;28;20484;-68
2022/12/16 00:15:53;;;;;;;26.90;13.20;;;;;;;-8.10;91.39;99645.44;5060343;28;20895;-68
2022/12/16 00:18:20;;;;;;;28.27;12.77;;;;;;;-7.99;91.50;99634.31;5065431;28;20452;-68
2022/12/16 00:20:48;;;;;;;15.07;6.50;;;;;;;-8.01;90.70;99636.72;5068980;28;20491;-68
2022/12/16 00:23:17;;;;;;;26.63;13.30;;;;;;;-8.04;90.41;99635.63;5041983;28;20855;-68
2022/12/16 00:25:44;;;;;;;26.63;12.70;;;;;;;-8.14;90.42;99635.72;5050072;28;20547;-68
2022/12/16 00:28:13;;;;;;;18.47;6.07;;;;;;;-8.17;90.24;99636.41;5067715;28;20688;-68
2022/12/16 00:30:41;;;;;;;15.47;6.47;;;;;;;-8.21;90.12;99637.84;5068742;28;21024;-68
2022/12/16 00:33:08;;;;;;;16.93;7.07;;;;;;;-8.28;90.21;99639.84;5067251;28;20555;-68
2022/12/16 00:35:34;;;;;;;23.23;8.87;;;;;;;-8.25;90.12;99642.63;5068894;28;20456;-68
2022/12/16 00:38:00;;;;;;;30.97;14.27;;;;;;;-8.26;90.25;99639.19;5066225;28;20485;-68
2022/12/16 00:40:27;;;;;;;23.57;11.20;;;;;;;-8.26;90.48;99638.28;5067515;28;20484;-68
2022/12/16 00:42:53;;;;;;;13.87;6.10;;;;;;;-8.40;90.41;99598.78;5050689;28;20529;-68
2022/12/16 00:45:22;;;;;;;14.07;6.10;;;;;;;-8.22;90.57;99635.16;5068820;28;20464;-68
2022/12/16 00:47:49;;;;;;;17.40;5.60;;;;;;;-8.24;90.39;99631.59;5068162;28;20488;-68
2022/12/16 00:50:17;;;;;;;12.43;5.47;;;;;;;-8.19;90.72;99629.34;5066968;28;20832;-68
2022/12/16 00:52:50;;;;;;;14.93;5.47;;;;;;;-8.23;90.39;99621.44;5067402;28;20472;-68
2022/12/16 00:55:18;;;;;;;18.43;9.03;;;;;;;-8.21;90.47;99618.97;5060541;28;20462;-68
2022/12/16 00:57:44;;;;;;;18.90;8.57;;;;;;;-8.17;90.57;99617.53;5064620;28;20492;-68
2022/12/16 01:00:13;;;;;;;13.33;4.60;;;;;;;-8.11;90.90;99618.88;5065917;28;20484;-68
2022/12/16 01:02:41;;;;;;;12.40;5.00;;;;;;;-8.11;90.96;99607.69;5066617;28;20995;-68
2022/12/16 01:05:09;;;;;;;10.50;4.37;;;;;;;-8.01;90.95;99623.88;5068277;28;20539;-68
2022/12/16 01:07:35;;;;;;;15.33;7.27;;;;;;;-7.99;91.03;99606.03;5064767;28;20488;-68
2022/12/16 01:10:03;;;;;;;9.80;4.37;;;;;;;-7.87;91.19;99626.59;5064837;28;20572;-68
2022/12/16 01:12:29;;;;;;;10.33;5.00;;;;;;;-7.82;91.37;99614.97;5063294;28;20476;-68
2022/12/16 01:14:56;;;;;;;11.97;4.33;;;;;;;-7.43;91.90;99624.66;5067633;28;20468;-68
2022/12/16 01:17:24;;;;;;;14.70;7.10;;;;;;;-7.50;91.20;99622.44;5049898;28;20552;-68
2022/12/16 01:19:52;;;;;;;9.47;3.60;;;;;;;-7.49;91.10;99629.34;5050076;28;20460;-68
2022/12/16 01:22:20;;;;;;;10.17;4.17;;;;;;;-7.50;90.91;99637.84;5066923;28;20564;-68
2022/12/16 01:24:46;;;;;;;9.50;3.57;;;;;;;-7.54;90.56;99639.31;5065964;28;20900;-68
2022/12/16 01:27:13;;;;;;;8.20;3.47;;;;;;;-7.57;90.47;99644.22;5066871;28;20593;-68
2022/12/16 01:29:39;;;;;;;15.93;4.80;;;;;;;-7.59;90.55;99646.69;5066827;28;21111;-68
2022/12/16 01:32:07;;;;;;;14.27;7.57;;;;;;;-7.60;90.55;99650.06;5067684;28;20453;-68
2022/12/16 01:34:34;;;;;;;10.53;5.03;;;;;;;-7.59;90.90;99656.97;5048577;28;20539;-68
2022/12/16 01:37:00;;;;;;;11.03;5.03;;;;;;;-7.69;89.89;99646.78;5069343;28;20456;-68
2022/12/16 01:39:29;;;;;;;10.77;4.87;;;;;;;-7.70;90.11;99665.56;5071455;28;20456;-68
2022/12/16 01:41:55;;;;;;;10.63;5.67;;;;;;;-7.77;90.32;99671.03;5072284;28;20494;-68
2022/12/16 01:44:25;;;;;;;10.57;5.13;;;;;;;-7.75;90.32;99677.19;5071925;28;20471;-68
2022/12/16 01:47:03;;;;;;;19.80;9.70;;;;;;;-7.75;90.46;99673.72;5070809;28;20475;-68
2022/12/16 01:49:39;;;;;;;14.67;5.40;;;;;;;-7.73;90.61;99687.59;5065382;28;20499;-68
2022/12/16 01:52:13;;;;;;;21.10;10.60;;;;;;;-7.73;90.72;99675.63;5070531;28;20539;-68
2022/12/16 01:54:49;;;;;;;12.47;5.67;;;;;;;-7.64;90.59;99681.44;5071238;28;20456;-68
2022/12/16 01:57:21;;;;;;;14.03;5.83;;;;;;;-7.72;90.29;99684.22;5065866;28;20551;-68
2022/12/16 01:59:50;;;;;;;23.90;10.40;;;;;;;-7.82;90.27;99681.78;5070192;28;20500;-68
2022/12/16 02:02:19;;;;;;;16.37;5.97;;;;;;;-7.84;89.72;99688.47;5067457;28;20527;-68
2022/12/16 02:07:30;;;;;;;23.63;10.10;;;;;;;-7.92;90.57;99683.69;5068952;28;20543;-68
2022/12/16 02:09:58;;;;;;;20.93;10.13;;;;;;;-7.88;90.27;99687.34;5071262;28;20488;-68
2022/12/16 02:12:42;;;;;;;14.83;6.67;;;;;;;-7.95;89.81;99682.56;5052613;28;20541;-68
2022/12/16 02:15:40;;;;;;;24.47;11.57;;;;;;;-7.98;90.26;99701.22;5071642;28;20483;-68
2022/12/16 02:18:40;;;;;;;11.87;5.83;;;;;;;-7.97;90.02;99696.97;5066149;28;20472;-68
2022/12/16 02:21:18;;;;;;;15.40;5.67;;;;;;;-8.02;89.95;99694.03;5067419;28;20495;-68
2022/12/16 02:23:59;;;;;;;21.00;10.70;;;;;;;-8.02;90.46;99698.28;5051194;28;20479;-68
2022/12/16 02:26:45;;;;;;;20.60;9.67;;;;;;;-8.02;90.59;99705.97;5052714;28;20886;-68
2022/12/16 02:29:43;;;;;;;19.60;10.57;;;;;;;-7.99;90.64;99702.00;5066070;28;20475;-68
2022/12/16 02:32:20;;;;;;;13.87;6.13;;;;;;;-8.00;90.34;99707.00;5051386;28;20541;-68
2022/12/16 02:35:07;;;;;;;12.30;5.43;;;;;;;-8.02;90.47;99699.16;5070160;28;20986;-68
2022/12/16 02:37:45;;;;;;;20.27;9.37;;;;;;;-8.12;90.39;99688.09;5067900;28;20468;-68
2022/12/16 02:40:22;;;;;;;14.13;6.17;;;;;;;-8.13;90.05;99696.59;5068038;28;20463;-68
2022/12/16 02:43:13;;;;;;;20.13;6.47;;;;;;;-8.15;90.06;99704.16;5069831;28;20621;-68
2022/12/16 02:45:40;;;;;;;17.80;6.87;;;;;;;-8.19;90.10;99699.59;5065639;28;20897;-68
2022/12/16 02:48:06;;;;;;;14.30;5.07;;;;;;;-8.18;90.19;99706.50;5070308;28;20513;-68
2022/12/16 02:50:40;;;;;;;14.13;6.63;;;;;;;-8.01;90.98;99708.66;5069945;28;20457;-68
2022/12/16 02:53:08;;;;;;;14.00;5.53;;;;;;;-8.09;90.05;99702.06;5056243;28;20506;-68
2022/12/16 02:56:02;;;;;;;12.93;5.80;;;;;;;-8.16;90.11;99704.06;5063899;28;20533;-68
2022/12/16 02:58:40;;;;;;;15.17;6.63;;;;;;;-8.17;90.09;99700.59;5070899;28;20456;-68
2022/12/16 03:01:23;;;;;;;18.27;5.90;;;;;;;-8.16;90.37;99706.63;5067499;28;20571;-68
2022/12/16 03:04:08;;;;;;;23.00;5.77;;;;;;;-8.16;90.51;99704.06;5059982;28;20853;-68
2022/12/16 03:06:37;;;;;;;13.83;5.60;;;;;;;-8.18;90.82;99700.47;5074198;28;20487;-68
2022/12/16 03:09:08;;;;;;;11.77;4.67;;;;;;;-8.14;90.86;99703.41;5044617;28;20487;-68
2022/12/16 03:11:37;;;;;;;13.83;5.47;;;;;;;-8.16;90.81;99694.69;5070311;28;20535;-68
2022/12/16 03:14:06;;;;;;;12.07;5.67;;;;;;;-8.17;90.47;99700.59;5067478;28;21014;-68
2022/12/16 03:16:33;;;;;;;15.30;5.50;;;;;;;-8.22;90.30;99707.97;5051856;28;20463;-68
2022/12/16 03:19:03;;;;;;;14.13;5.57;;;;;;;-8.26;90.09;99713.66;5069429;28;20464;-68
2022/12/16 03:21:36;;;;;;;11.80;5.20;;;;;;;-8.36;90.03;99706.06;5068682;28;20475;-68
2022/12/16 03:24:07;;;;;;;11.70;5.10;;;;;;;-8.36;90.09;99710.31;5069209;28;20563;-68
2022/12/16 03:26:50;;;;;;;18.07;6.27;;;;;;;-8.41;89.98;99702.22;5069917;28;20552;-68
2022/12/16 03:29:40;;;;;;;11.43;5.03;;;;;;;-8.43;90.06;99708.03;5068022;28;20518;-68
2022/12/16 03:32:17;;;;;;;11.37;5.40;;;;;;;-8.49;89.93;99705.88;5066887;28;20562;-68
2022/12/16 03:35:00;;;;;;;11.17;5.67;;;;;;;-8.47;90.47;99706.00;5068878;28;20558;-68
2022/12/16 03:37:32;;;;;;;10.97;5.33;;;;;;;-8.48;90.31;99706.78;5064161;28;20452;-68
2022/12/16 03:40:02;;;;;;;11.90;5.87;;;;;;;-8.51;89.63;99710.00;5069370;28;20890;-68
2022/12/16 03:42:29;;;;;;;16.87;6.20;;;;;;;-8.52;89.96;99710.78;5063028;28;20531;-68
2022/12/16 03:44:56;;;;;;;12.07;6.13;;;;;;;-8.53;90.33;99719.28;5069059;28;20500;-68
2022/12/16 03:47:26;;;;;;;11.13;4.80;;;;;;;-8.40;90.15;99710.84;5068949;28;20456;-68
2022/12/16 03:49:52;;;;;;;18.50;8.77;;;;;;;-8.43;89.95;99719.19;5068606;28;20480;-68
2022/12/16 03:52:19;;;;;;;10.53;5.00;;;;;;;-8.49;89.54;99720.41;5069614;28;20846;-68
2022/12/16 03:54:45;;;;;;;15.00;4.77;;;;;;;-8.54;90.01;99718.38;5069114;28;21117;-68
2022/12/16 03:57:12;;;;;;;11.87;4.13;;;;;;;-8.45;90.89;99720.75;5068486;28;20459;-68
2022/12/16 03:59:41;;;;;;;10.50;4.20;;;;;;;-8.43;90.04;99720.84;5067676;28;20464;-68
2022/12/16 04:02:07;;;;;;;10.83;4.83;;;;;;;-8.52;89.61;99725.28;5067733;28;21084;-68
2022/12/16 04:04:34;;;;;;;13.73;5.13;;;;;;;-8.61;89.64;99728.94;5069320;28;20461;-68
2022/12/16 04:09:48;;;;;;;10.27;4.93;;;;;;;-8.67;89.83;99735.28;5066892;28;20452;-68
2022/12/16 04:26:08;;;;;;;18.20;8.43;;;;;;;-8.71;90.88;99752.13;5069253;28;20505;-67
2022/12/16 04:28:34;;;;;;;17.27;8.67;;;;;;;-8.77;89.69;99737.91;5062783;28;20886;-67
2022/12/16 04:31:01;;;;;;;21.73;8.37;;;;;;;-8.64;90.82;99750.91;5066481;28;21059;-67
